| Date | Time | Temp. (oF) | Dew Point (oF) | Rel. Hum. (%) | Press. (in.) | Wind Dir. | Wind Speed (mph) | Hourly Rainfall (in.) |
|
|---|---|---|---|---|---|---|---|---|---|
| 1 | 08/26 | 00:00 | 70 | 55 | 60 | 29.98 | NNE | 7 | 0.00 |
| 2 | 08/25 | 23:00 | 73 | 55 | 55 | 29.95 | NNW | 4 | 0.00 |
| 3 | 08/25 | 22:00 | 74 | 56 | 55 | 29.94 | NNE | 4 | 0.00 |
| 4 | 08/25 | 21:00 | 76 | 56 | 52 | 29.91 | NNW | 3 | 0.00 |
| 5 | 08/25 | 20:00 | 79 | 57 | 48 | 29.88 | NNW | 10 | 0.00 |
| 6 | 08/25 | 19:00 | 82 | 60 | 48 | 29.84 | N | 4 | 0.00 |
| 7 | 08/25 | 18:00 | 86 | 62 | 46 | 29.83 | NNE | 3 | 0.00 |
| 8 | 08/25 | 17:00 | 87 | 63 | 46 | 29.82 | ENE | 6 | 0.00 |
| 9 | 08/25 | 16:00 | 87 | 62 | 44 | 29.83 | NNW | 7 | 0.00 |
| 10 | 08/25 | 15:00 | 87 | 63 | 46 | 29.85 | WNW | 5 | 0.00 |
| 11 | 08/25 | 14:00 | 84 | 68 | 60 | 29.87 | NNW | 8 | 0.00 |
| 12 | 08/25 | 13:00 | 81 | 69 | 69 | 29.88 | NNW | 5 | 0.00 |
| 13 | 08/25 | 12:00 | 80 | 68 | 68 | 29.90 | N | 4 | 0.00 |
| 14 | 08/25 | 11:00 | 77 | 68 | 75 | 29.90 | NE | 0 | 0.00 |
| 15 | 08/25 | 10:00 | 74 | 67 | 81 | 29.90 | WSW | 0 | 0.00 |
| 16 | 08/25 | 09:00 | 73 | 68 | 86 | 29.90 | S | 0 | 0.00 |
| 17 | 08/25 | 08:00 | 70 | 67 | 93 | 29.89 | SSW | 0 | 0.00 |
| 18 | 08/25 | 07:00 | 67 | 65 | 95 | 29.89 | S | 0 | 0.00 |
| 19 | 08/25 | 06:00 | 68 | 65 | 93 | 29.87 | S | 0 | 0.00 |
| 20 | 08/25 | 05:00 | 69 | 65 | 89 | 29.88 | S | 0 | 0.00 |
| 21 | 08/25 | 04:00 | 71 | 66 | 85 | 29.89 | SW | 0 | 0.00 |
| 22 | 08/25 | 03:00 | 71 | 65 | 83 | 29.89 | SSW | 7 | 0.00 |
| 23 | 08/25 | 02:00 | 73 | 66 | 80 | 29.89 | S | 6 | 0.00 |
| 24 | 08/25 | 01:00 | 73 | 65 | 78 | 29.91 | S | 7 | 0.00 |